VIV629 MMGL-MMMX
Flight info
| Callsign | VIV629 |
|---|---|
| Flight time | 0h 56m |
| Altitude | 35000 |
| Route | EMIR1B/29R EMIRI UT119 ESPOS |
| Aircraft | A320/M-SDE3FGHIRWY/LB1 |
Departure
| Time | 2026-05-06 00:50 |
|---|---|
| Airport | Guadalajara International Airport (MMGL) |
Arrival
| Time | 2026-05-06 01:47 |
|---|---|
| Airport | Mexico City Benito Juárez International Airport (MMMX) |
| Time | Latitude | Longitude | Altitude | Speed | Heading |
|---|---|---|---|---|---|
| 2026-05-06 00:20 | 20.52266 | -103.29980 | 5029 ft | 0 kts | 199° |
| 2026-05-06 00:39 | 20.52268 | -103.29979 | 5029 ft | 1 kts | 199° |
| 2026-05-06 00:39 | 20.52272 | -103.29977 | 5029 ft | 0 kts | 199° |
| 2026-05-06 00:39 | 20.52281 | -103.29974 | 5025 ft | 2 kts | 199° |
| 2026-05-06 00:39 | 20.52295 | -103.29969 | 5025 ft | 2 kts | 199° |
| 2026-05-06 00:40 | 20.52310 | -103.29963 | 5025 ft | 2 kts | 199° |
| 2026-05-06 00:40 | 20.52324 | -103.29956 | 5023 ft | 2 kts | 262° |
| 2026-05-06 00:40 | 20.52323 | -103.29940 | 5026 ft | 2 kts | 286° |
| 2026-05-06 00:40 | 20.52319 | -103.29924 | 5025 ft | 1 kts | 286° |
| 2026-05-06 00:43 | 20.52321 | -103.29930 | 5025 ft | 2 kts | 286° |
| 2026-05-06 00:43 | 20.52330 | -103.29961 | 5027 ft | 6 kts | 288° |
| 2026-05-06 00:44 | 20.52339 | -103.29991 | 5029 ft | 7 kts | 288° |
| 2026-05-06 00:44 | 20.52294 | -103.30033 | 5029 ft | 13 kts | 201° |
| 2026-05-06 00:44 | 20.52206 | -103.30066 | 5029 ft | 14 kts | 191° |
| 2026-05-06 00:44 | 20.52153 | -103.29993 | 5028 ft | 14 kts | 112° |
| 2026-05-06 00:45 | 20.52112 | -103.29898 | 5029 ft | 14 kts | 115° |
| 2026-05-06 00:45 | 20.52069 | -103.29798 | 5028 ft | 15 kts | 114° |
| 2026-05-06 00:45 | 20.52025 | -103.29695 | 5029 ft | 16 kts | 114° |
| 2026-05-06 00:45 | 20.51985 | -103.29600 | 5030 ft | 12 kts | 113° |
| 2026-05-06 00:46 | 20.51955 | -103.29539 | 5030 ft | 8 kts | 132° |
| 2026-05-06 00:46 | 20.51909 | -103.29537 | 5030 ft | 3 kts | 208° |
| 2026-05-06 00:46 | 20.51891 | -103.29547 | 5030 ft | 3 kts | 208° |
| 2026-05-06 00:46 | 20.51856 | -103.29566 | 5030 ft | 10 kts | 207° |
| 2026-05-06 00:47 | 20.51829 | -103.29630 | 5030 ft | 5 kts | 290° |
| 2026-05-06 00:47 | 20.51829 | -103.29631 | 5030 ft | 0 kts | 291° |
| 2026-05-06 00:49 | 20.51833 | -103.29641 | 5030 ft | 5 kts | 291° |
| 2026-05-06 00:49 | 20.51905 | -103.29818 | 5029 ft | 60 kts | 294° |
| 2026-05-06 00:49 | 20.52177 | -103.30466 | 5027 ft | 126 kts | 294° |
| 2026-05-06 00:50 | 20.52610 | -103.31490 | 5134 ft | 168 kts | 295° |
| 2026-05-06 00:50 | 20.53099 | -103.32630 | 6013 ft | 169 kts | 295° |
| 2026-05-06 00:50 | 20.53575 | -103.33802 | 6430 ft | 178 kts | 292° |
| 2026-05-06 00:50 | 20.54049 | -103.35051 | 6681 ft | 190 kts | 290° |
| 2026-05-06 00:51 | 20.54538 | -103.36428 | 6888 ft | 204 kts | 290° |
| 2026-05-06 00:51 | 20.55080 | -103.37863 | 7200 ft | 215 kts | 293° |
| 2026-05-06 00:51 | 20.55674 | -103.39370 | 7586 ft | 226 kts | 294° |
| 2026-05-06 00:51 | 20.56324 | -103.40929 | 8051 ft | 235 kts | 294° |
| 2026-05-06 00:52 | 20.56993 | -103.42544 | 8670 ft | 239 kts | 294° |
| 2026-05-06 00:52 | 20.57670 | -103.44176 | 9356 ft | 242 kts | 293° |
| 2026-05-06 00:52 | 20.58358 | -103.45859 | 9912 ft | 251 kts | 292° |
| 2026-05-06 00:52 | 20.58784 | -103.47632 | 10632 ft | 247 kts | 271° |
| 2026-05-06 00:53 | 20.58506 | -103.49498 | 10911 ft | 267 kts | 245° |
| 2026-05-06 00:53 | 20.57328 | -103.51088 | 11247 ft | 284 kts | 216° |
| 2026-05-06 00:53 | 20.55453 | -103.51861 | 11627 ft | 300 kts | 185° |
| 2026-05-06 00:53 | 20.53350 | -103.51493 | 11969 ft | 318 kts | 157° |
| 2026-05-06 00:54 | 20.51506 | -103.50090 | 12255 ft | 337 kts | 139° |
| 2026-05-06 00:54 | 20.49886 | -103.48190 | 12521 ft | 354 kts | 130° |
| 2026-05-06 00:54 | 20.48400 | -103.46018 | 12778 ft | 370 kts | 127° |
| 2026-05-06 00:54 | 20.46908 | -103.43739 | 13216 ft | 378 kts | 128° |
| 2026-05-06 00:55 | 20.45370 | -103.41461 | 13887 ft | 378 kts | 129° |
| 2026-05-06 00:55 | 20.43799 | -103.39242 | 14467 ft | 379 kts | 129° |
| 2026-05-06 00:55 | 20.42158 | -103.37019 | 15002 ft | 381 kts | 130° |
| 2026-05-06 00:55 | 20.40488 | -103.34820 | 15547 ft | 383 kts | 131° |
| 2026-05-06 00:56 | 20.38792 | -103.32616 | 15832 ft | 385 kts | 131° |
| 2026-05-06 00:56 | 20.37082 | -103.30403 | 16333 ft | 388 kts | 131° |
| 2026-05-06 00:56 | 20.35363 | -103.28170 | 16878 ft | 390 kts | 131° |
| 2026-05-06 00:56 | 20.33646 | -103.25927 | 17416 ft | 392 kts | 131° |
| 2026-05-06 00:57 | 20.31919 | -103.23666 | 17971 ft | 394 kts | 131° |
| 2026-05-06 00:57 | 20.30185 | -103.21388 | 18442 ft | 397 kts | 131° |
| 2026-05-06 00:57 | 20.28448 | -103.19101 | 18953 ft | 397 kts | 131° |
| 2026-05-06 00:57 | 20.26710 | -103.16813 | 19465 ft | 398 kts | 131° |
| 2026-05-06 00:58 | 20.24962 | -103.14515 | 19942 ft | 400 kts | 131° |
| 2026-05-06 00:58 | 20.23205 | -103.12210 | 20420 ft | 402 kts | 131° |
| 2026-05-06 00:58 | 20.21455 | -103.09917 | 20855 ft | 404 kts | 131° |
| 2026-05-06 00:58 | 20.19678 | -103.07589 | 21305 ft | 406 kts | 131° |
| 2026-05-06 00:59 | 20.17888 | -103.05246 | 21741 ft | 408 kts | 131° |
| 2026-05-06 00:59 | 20.16090 | -103.02899 | 22180 ft | 410 kts | 131° |
| 2026-05-06 00:59 | 20.14282 | -103.00543 | 22604 ft | 412 kts | 131° |
| 2026-05-06 00:59 | 20.12466 | -102.98172 | 23006 ft | 414 kts | 131° |
| 2026-05-06 01:00 | 20.10648 | -102.95796 | 23441 ft | 416 kts | 131° |
| 2026-05-06 01:00 | 20.08819 | -102.93402 | 23776 ft | 418 kts | 131° |
| 2026-05-06 01:00 | 20.06980 | -102.90992 | 24076 ft | 421 kts | 131° |
| 2026-05-06 01:00 | 20.05126 | -102.88566 | 24382 ft | 423 kts | 131° |
| 2026-05-06 01:01 | 20.03261 | -102.86127 | 24676 ft | 426 kts | 131° |
| 2026-05-06 01:01 | 20.01382 | -102.83673 | 24972 ft | 429 kts | 131° |
| 2026-05-06 01:01 | 19.99485 | -102.81199 | 25289 ft | 432 kts | 131° |
| 2026-05-06 01:01 | 19.97580 | -102.78718 | 25584 ft | 434 kts | 131° |
| 2026-05-06 01:02 | 19.95667 | -102.76227 | 25871 ft | 437 kts | 131° |
| 2026-05-06 01:02 | 19.93739 | -102.73717 | 26176 ft | 439 kts | 131° |
| 2026-05-06 01:02 | 19.91802 | -102.71192 | 26463 ft | 442 kts | 131° |
| 2026-05-06 01:02 | 19.89849 | -102.68649 | 26727 ft | 445 kts | 131° |
| 2026-05-06 01:03 | 19.87888 | -102.66097 | 27020 ft | 448 kts | 131° |
| 2026-05-06 01:03 | 19.85908 | -102.63523 | 27296 ft | 451 kts | 131° |
| 2026-05-06 01:03 | 19.83919 | -102.60938 | 27583 ft | 454 kts | 131° |
| 2026-05-06 01:03 | 19.81933 | -102.58320 | 27858 ft | 457 kts | 129° |
| 2026-05-06 01:04 | 19.80229 | -102.55443 | 28115 ft | 463 kts | 120° |
| 2026-05-06 01:04 | 19.79001 | -102.52488 | 28384 ft | 468 kts | 115° |
| 2026-05-06 01:04 | 19.77792 | -102.49316 | 28668 ft | 471 kts | 115° |
| 2026-05-06 01:04 | 19.76561 | -102.46084 | 29018 ft | 472 kts | 115° |
| 2026-05-06 01:05 | 19.75328 | -102.42858 | 29472 ft | 472 kts | 115° |
| 2026-05-06 01:05 | 19.74089 | -102.39621 | 29901 ft | 472 kts | 115° |
| 2026-05-06 01:05 | 19.72849 | -102.36388 | 30276 ft | 472 kts | 115° |
| 2026-05-06 01:05 | 19.71608 | -102.33161 | 30687 ft | 472 kts | 115° |
| 2026-05-06 01:06 | 19.70371 | -102.29944 | 31075 ft | 472 kts | 115° |
| 2026-05-06 01:06 | 19.69132 | -102.26720 | 31482 ft | 471 kts | 115° |
| 2026-05-06 01:06 | 19.67890 | -102.23497 | 31870 ft | 471 kts | 115° |
| 2026-05-06 01:06 | 19.66652 | -102.20288 | 32255 ft | 471 kts | 115° |
| 2026-05-06 01:07 | 19.65412 | -102.17074 | 32713 ft | 471 kts | 115° |
| 2026-05-06 01:07 | 19.64170 | -102.13851 | 33148 ft | 471 kts | 115° |
| 2026-05-06 01:07 | 19.62932 | -102.10633 | 33562 ft | 471 kts | 115° |
| 2026-05-06 01:07 | 19.61693 | -102.07417 | 33987 ft | 471 kts | 115° |
| 2026-05-06 01:08 | 19.60453 | -102.04205 | 34356 ft | 471 kts | 115° |
| 2026-05-06 01:08 | 19.59227 | -102.01038 | 34759 ft | 469 kts | 114° |
| 2026-05-06 01:08 | 19.57989 | -101.97839 | 35018 ft | 469 kts | 114° |
| 2026-05-06 01:09 | 19.55502 | -101.91410 | 35084 ft | 472 kts | 114° |
| 2026-05-06 01:09 | 19.53014 | -101.84977 | 35061 ft | 473 kts | 114° |
| 2026-05-06 01:10 | 19.50515 | -101.78532 | 35027 ft | 473 kts | 114° |
| 2026-05-06 01:10 | 19.48008 | -101.72088 | 34986 ft | 473 kts | 114° |
| 2026-05-06 01:11 | 19.45503 | -101.65652 | 34945 ft | 473 kts | 114° |
| 2026-05-06 01:11 | 19.42996 | -101.59204 | 34937 ft | 473 kts | 114° |
| 2026-05-06 01:12 | 19.40484 | -101.52755 | 34921 ft | 473 kts | 114° |
| 2026-05-06 01:12 | 19.37974 | -101.46324 | 34923 ft | 473 kts | 114° |
| 2026-05-06 01:13 | 19.35477 | -101.39927 | 34898 ft | 473 kts | 114° |
| 2026-05-06 01:13 | 19.32959 | -101.33488 | 34898 ft | 473 kts | 114° |
| 2026-05-06 01:14 | 19.29178 | -101.23824 | 34837 ft | 473 kts | 114° |
| 2026-05-06 01:14 | 19.26659 | -101.17413 | 34840 ft | 472 kts | 114° |
| 2026-05-06 01:15 | 19.24144 | -101.10998 | 34841 ft | 472 kts | 114° |
| 2026-05-06 01:15 | 19.21618 | -101.04592 | 34841 ft | 472 kts | 114° |
| 2026-05-06 01:16 | 19.19084 | -100.98180 | 34786 ft | 471 kts | 114° |
| 2026-05-06 01:16 | 19.16557 | -100.91787 | 34783 ft | 472 kts | 114° |
| 2026-05-06 01:17 | 19.14030 | -100.85387 | 34763 ft | 472 kts | 114° |
| 2026-05-06 01:17 | 19.11519 | -100.79013 | 34763 ft | 472 kts | 114° |
| 2026-05-06 01:18 | 19.08995 | -100.72613 | 34763 ft | 472 kts | 114° |
| 2026-05-06 01:18 | 19.06452 | -100.66210 | 34743 ft | 472 kts | 115° |
| 2026-05-06 01:19 | 19.03907 | -100.59812 | 34739 ft | 472 kts | 115° |
| 2026-05-06 01:19 | 19.01367 | -100.53404 | 34760 ft | 472 kts | 114° |
| 2026-05-06 01:20 | 18.98828 | -100.47005 | 34756 ft | 472 kts | 114° |
| 2026-05-06 01:20 | 18.96282 | -100.40602 | 34786 ft | 472 kts | 114° |
| 2026-05-06 01:21 | 18.93746 | -100.34245 | 34767 ft | 473 kts | 114° |
| 2026-05-06 01:21 | 18.91193 | -100.27843 | 34767 ft | 473 kts | 114° |
| 2026-05-06 01:22 | 18.88644 | -100.21439 | 34535 ft | 475 kts | 114° |
| 2026-05-06 01:22 | 18.87363 | -100.18236 | 34235 ft | 472 kts | 114° |
| 2026-05-06 01:22 | 18.86081 | -100.15047 | 34009 ft | 472 kts | 115° |
| 2026-05-06 01:23 | 18.84795 | -100.11850 | 33823 ft | 472 kts | 115° |
| 2026-05-06 01:23 | 18.83511 | -100.08654 | 33527 ft | 473 kts | 115° |
| 2026-05-06 01:23 | 18.82230 | -100.05462 | 33278 ft | 472 kts | 115° |
| 2026-05-06 01:23 | 18.80952 | -100.02275 | 33024 ft | 472 kts | 115° |
| 2026-05-06 01:24 | 18.79673 | -99.99079 | 32771 ft | 472 kts | 115° |
| 2026-05-06 01:24 | 18.78394 | -99.95885 | 32413 ft | 471 kts | 115° |
| 2026-05-06 01:24 | 18.77136 | -99.92751 | 31947 ft | 465 kts | 115° |
| 2026-05-06 01:24 | 18.75901 | -99.89563 | 31135 ft | 467 kts | 110° |
| 2026-05-06 01:25 | 18.75083 | -99.86196 | 30006 ft | 479 kts | 101° |
| 2026-05-06 01:25 | 18.74836 | -99.82704 | 28786 ft | 489 kts | 91° |
| 2026-05-06 01:25 | 18.75196 | -99.79117 | 27890 ft | 491 kts | 81° |
| 2026-05-06 01:25 | 18.76124 | -99.75659 | 26978 ft | 492 kts | 71° |
| 2026-05-06 01:26 | 18.77488 | -99.72344 | 26050 ft | 491 kts | 68° |
| 2026-05-06 01:26 | 18.78886 | -99.69054 | 25146 ft | 489 kts | 68° |
| 2026-05-06 01:26 | 18.80273 | -99.65793 | 24437 ft | 483 kts | 68° |
| 2026-05-06 01:26 | 18.81629 | -99.62603 | 23519 ft | 469 kts | 68° |
| 2026-05-06 01:27 | 18.82945 | -99.59499 | 22307 ft | 456 kts | 68° |
| 2026-05-06 01:27 | 18.84209 | -99.56515 | 21549 ft | 438 kts | 68° |
| 2026-05-06 01:27 | 18.85447 | -99.53588 | 20716 ft | 435 kts | 68° |
| 2026-05-06 01:27 | 18.86674 | -99.50679 | 19898 ft | 432 kts | 68° |
| 2026-05-06 01:28 | 18.87895 | -99.47786 | 19155 ft | 430 kts | 68° |
| 2026-05-06 01:28 | 18.89087 | -99.44965 | 18879 ft | 415 kts | 67° |
| 2026-05-06 01:28 | 18.90251 | -99.42213 | 18756 ft | 398 kts | 67° |
| 2026-05-06 01:28 | 18.91354 | -99.39604 | 18645 ft | 381 kts | 67° |
| 2026-05-06 01:29 | 18.92665 | -99.37183 | 18571 ft | 388 kts | 56° |
| 2026-05-06 01:29 | 18.94304 | -99.34824 | 18359 ft | 404 kts | 55° |
| 2026-05-06 01:29 | 18.95986 | -99.32413 | 18114 ft | 408 kts | 55° |
| 2026-05-06 01:29 | 18.97672 | -99.30003 | 17826 ft | 406 kts | 55° |
| 2026-05-06 01:30 | 18.99340 | -99.27624 | 17070 ft | 401 kts | 55° |
| 2026-05-06 01:30 | 19.00974 | -99.25295 | 16500 ft | 397 kts | 54° |
| 2026-05-06 01:30 | 19.02611 | -99.22957 | 15952 ft | 393 kts | 54° |
| 2026-05-06 01:30 | 19.04248 | -99.20613 | 15333 ft | 390 kts | 54° |
| 2026-05-06 01:31 | 19.05855 | -99.18311 | 14740 ft | 388 kts | 54° |
| 2026-05-06 01:31 | 19.07410 | -99.16089 | 14598 ft | 371 kts | 54° |
| 2026-05-06 01:31 | 19.08899 | -99.13963 | 14506 ft | 346 kts | 54° |
| 2026-05-06 01:31 | 19.10275 | -99.11997 | 14386 ft | 322 kts | 54° |
| 2026-05-06 01:32 | 19.11561 | -99.10152 | 14277 ft | 301 kts | 54° |
| 2026-05-06 01:32 | 19.12760 | -99.08425 | 14168 ft | 282 kts | 55° |
| 2026-05-06 01:32 | 19.13890 | -99.06800 | 14070 ft | 270 kts | 55° |
| 2026-05-06 01:32 | 19.14998 | -99.05212 | 13967 ft | 266 kts | 54° |
| 2026-05-06 01:33 | 19.16247 | -99.03782 | 13747 ft | 265 kts | 32° |
| 2026-05-06 01:33 | 19.17917 | -99.03180 | 13755 ft | 246 kts | 4° |
| 2026-05-06 01:33 | 19.19564 | -99.03397 | 13655 ft | 237 kts | 340° |
| 2026-05-06 01:33 | 19.21008 | -99.04355 | 13207 ft | 256 kts | 316° |
| 2026-05-06 01:34 | 19.22330 | -99.05680 | 12854 ft | 264 kts | 316° |
| 2026-05-06 01:34 | 19.23671 | -99.07023 | 12499 ft | 266 kts | 316° |
| 2026-05-06 01:34 | 19.25032 | -99.08355 | 12193 ft | 267 kts | 319° |
| 2026-05-06 01:34 | 19.25958 | -99.09211 | 11990 ft | 267 kts | 320° |
| 2026-05-06 01:35 | 19.27381 | -99.10486 | 11671 ft | 268 kts | 320° |
| 2026-05-06 01:35 | 19.29277 | -99.12164 | 11254 ft | 259 kts | 320° |
| 2026-05-06 01:35 | 19.30196 | -99.12906 | 11067 ft | 243 kts | 333° |
| 2026-05-06 01:35 | 19.32308 | -99.13255 | 11220 ft | 239 kts | 15° |
| 2026-05-06 01:36 | 19.33773 | -99.12467 | 11821 ft | 245 kts | 44° |
| 2026-05-06 01:36 | 19.34741 | -99.10967 | 12520 ft | 254 kts | 68° |
| 2026-05-06 01:36 | 19.35348 | -99.09097 | 12324 ft | 280 kts | 75° |
| 2026-05-06 01:36 | 19.35866 | -99.07157 | 12471 ft | 272 kts | 74° |
| 2026-05-06 01:37 | 19.36221 | -99.05867 | 12497 ft | 270 kts | 78° |
| 2026-05-06 01:37 | 19.36237 | -99.03913 | 12499 ft | 266 kts | 105° |
| 2026-05-06 01:37 | 19.35392 | -99.02193 | 12501 ft | 266 kts | 129° |
| 2026-05-06 01:37 | 19.34173 | -99.00758 | 12481 ft | 266 kts | 133° |
| 2026-05-06 01:38 | 19.32871 | -98.99320 | 12457 ft | 267 kts | 134° |
| 2026-05-06 01:38 | 19.31595 | -98.97920 | 12429 ft | 268 kts | 134° |
| 2026-05-06 01:38 | 19.30274 | -98.96530 | 12405 ft | 268 kts | 141° |
| 2026-05-06 01:38 | 19.28636 | -98.95634 | 12376 ft | 264 kts | 165° |
| 2026-05-06 01:39 | 19.26847 | -98.95527 | 12355 ft | 259 kts | 188° |
| 2026-05-06 01:39 | 19.25165 | -98.96197 | 12338 ft | 261 kts | 212° |
| 2026-05-06 01:39 | 19.23880 | -98.97545 | 12333 ft | 264 kts | 237° |
| 2026-05-06 01:39 | 19.23231 | -98.99345 | 12339 ft | 262 kts | 262° |
| 2026-05-06 01:40 | 19.23304 | -99.01264 | 12343 ft | 263 kts | 278° |
| 2026-05-06 01:40 | 19.23589 | -99.03179 | 12354 ft | 264 kts | 278° |
| 2026-05-06 01:40 | 19.23873 | -99.05106 | 12352 ft | 264 kts | 278° |
| 2026-05-06 01:40 | 19.24250 | -99.06970 | 12355 ft | 254 kts | 289° |
| 2026-05-06 01:41 | 19.24991 | -99.08607 | 12269 ft | 243 kts | 303° |
| 2026-05-06 01:41 | 19.26929 | -99.11300 | 11795 ft | 231 kts | 308° |
| 2026-05-06 01:41 | 19.28212 | -99.13079 | 11367 ft | 228 kts | 307° |
| 2026-05-06 01:42 | 19.29172 | -99.14415 | 11157 ft | 228 kts | 307° |
| 2026-05-06 01:42 | 19.29815 | -99.15310 | 10994 ft | 225 kts | 307° |
| 2026-05-06 01:42 | 19.30758 | -99.16620 | 10708 ft | 222 kts | 307° |
| 2026-05-06 01:42 | 19.31688 | -99.17901 | 10425 ft | 221 kts | 310° |
| 2026-05-06 01:43 | 19.32820 | -99.18893 | 10185 ft | 206 kts | 333° |
| 2026-05-06 01:43 | 19.34150 | -99.19333 | 9951 ft | 198 kts | 355° |
| 2026-05-06 01:43 | 19.35499 | -99.19231 | 9722 ft | 194 kts | 16° |
| 2026-05-06 01:43 | 19.36708 | -99.18635 | 9507 ft | 191 kts | 38° |
| 2026-05-06 01:44 | 19.37615 | -99.17637 | 9391 ft | 188 kts | 58° |
| 2026-05-06 01:44 | 19.38270 | -99.16485 | 9275 ft | 175 kts | 60° |
| 2026-05-06 01:44 | 19.38872 | -99.15409 | 9180 ft | 167 kts | 60° |
| 2026-05-06 01:44 | 19.39464 | -99.14354 | 9047 ft | 166 kts | 59° |
| 2026-05-06 01:45 | 19.40052 | -99.13307 | 8822 ft | 164 kts | 59° |
| 2026-05-06 01:45 | 19.40632 | -99.12274 | 8507 ft | 163 kts | 60° |
| 2026-05-06 01:45 | 19.41206 | -99.11248 | 8144 ft | 161 kts | 61° |
| 2026-05-06 01:45 | 19.41772 | -99.10238 | 7746 ft | 159 kts | 63° |
| 2026-05-06 01:46 | 19.42341 | -99.09238 | 7543 ft | 158 kts | 62° |
| 2026-05-06 01:46 | 19.42898 | -99.08235 | 7352 ft | 158 kts | 65° |
| 2026-05-06 01:46 | 19.43419 | -99.07302 | 7303 ft | 126 kts | 59° |
| 2026-05-06 01:46 | 19.43780 | -99.06659 | 7303 ft | 77 kts | 59° |
| 2026-05-06 01:47 | 19.43967 | -99.06326 | 7301 ft | 28 kts | 52° |
| 2026-05-06 01:47 | 19.44107 | -99.06218 | 7303 ft | 20 kts | 29° |
| 2026-05-06 01:47 | 19.44197 | -99.06178 | 7303 ft | 10 kts | 15° |
| 2026-05-06 01:47 | 19.44269 | -99.06167 | 7303 ft | 11 kts | 5° |
| 2026-05-06 01:48 | 19.44349 | -99.06163 | 7302 ft | 12 kts | 356° |
| 2026-05-06 01:48 | 19.44399 | -99.06228 | 7303 ft | 11 kts | 290° |
| 2026-05-06 01:48 | 19.44422 | -99.06312 | 7303 ft | 12 kts | 272° |
| 2026-05-06 01:48 | 19.44413 | -99.06338 | 7303 ft | 1 kts | 238° |
| 2026-05-06 01:49 | 19.44412 | -99.06340 | 7303 ft | 1 kts | 238° |
| 2026-05-06 01:49 | 19.44406 | -99.06350 | 7303 ft | 2 kts | 238° |
| 2026-05-06 01:49 | 19.44395 | -99.06369 | 7303 ft | 4 kts | 238° |
| 2026-05-06 01:49 | 19.44389 | -99.06379 | 7303 ft | 4 kts | 238° |
| 2026-05-06 01:50 | 19.44371 | -99.06410 | 7303 ft | 6 kts | 238° |
| 2026-05-06 01:50 | 19.44347 | -99.06451 | 7303 ft | 7 kts | 239° |
| 2026-05-06 01:50 | 19.44338 | -99.06468 | 7303 ft | 8 kts | 239° |
| 2026-05-06 01:51 | 19.44337 | -99.06469 | 7303 ft | 8 kts | 239° |
| 2026-05-06 01:51 | 19.44306 | -99.06526 | 7303 ft | 10 kts | 241° |
| 2026-05-06 01:51 | 19.44267 | -99.06597 | 7303 ft | 12 kts | 238° |
| 2026-05-06 01:51 | 19.44218 | -99.06684 | 7303 ft | 15 kts | 239° |
| 2026-05-06 01:52 | 19.44163 | -99.06785 | 7303 ft | 17 kts | 239° |
| 2026-05-06 01:52 | 19.44115 | -99.06890 | 7303 ft | 12 kts | 278° |
| 2026-05-06 01:52 | 19.44188 | -99.06917 | 7303 ft | 12 kts | 359° |
| 2026-05-06 01:52 | 19.44246 | -99.06950 | 7303 ft | 8 kts | 327° |
| 2026-05-06 01:53 | 19.44256 | -99.06956 | 7303 ft | 0 kts | 329° |